Skip Navigation

Christman Field Latest Observations

Switch to metric unitsOther observation timesWeekly graphs

Date Time
MST
Temp
°F
RH
%
DewPt
°F
Wind
mph
Dir
°
Gust
mph
Dir
°
Press
in Hg
Solar
W/m^2
Prec
in
2017-11-18 00:55 32.8 48.3 15.4 19.7 25.5 24.843 0.0 0.00
2017-11-18 00:50 32.9 48.9 15.7 19.1 24.5 24.844 0.0 0.00
2017-11-18 00:45 33.0 49.7 16.2 21.5 30.0 24.840 0.0 0.00
2017-11-18 00:40 33.2 50.0 16.5 21.5 29.2 24.838 0.0 0.00
2017-11-18 00:35 33.5 49.0 16.4 24.3 30.1 24.836 0.0 0.00
2017-11-18 00:30 33.9 47.8 16.1 24.9 33.9 24.831 0.0 0.00
2017-11-18 00:25 34.4 45.9 15.7 28.2 42.4 24.826 0.0 0.00
2017-11-18 00:20 34.7 44.7 15.4 27.9 36.8 24.818 0.0 0.00
2017-11-18 00:15 34.9 43.6 15.0 26.7 36.6 24.811 0.0 0.00
2017-11-18 00:10 35.0 44.2 15.4 24.1 32.5 24.804 0.0 0.00
2017-11-18 00:05 35.2 42.3 14.5 28.4 38.6 24.795 0.0 0.00
2017-11-18 00:00 35.5 41.2 14.3 34.5 43.8 24.784 0.0 0.00
2017-11-17 23:55 35.7 39.7 13.6 31.9 44.2 24.774 0.0 0.00
2017-11-17 23:50 36.5 41.0 15.0 24.0 33.4 24.764 0.0 0.00
2017-11-17 23:45 37.0 34.7 11.7 27.0 37.6 24.751 0.0 0.00
2017-11-17 23:40 37.0 33.8 11.1 27.9 40.0 24.733 0.0 0.00
2017-11-17 23:35 37.0 34.1 11.3 21.8 32.1 24.721 0.0 0.00
2017-11-17 23:30 36.9 35.7 12.2 22.8 31.5 24.710 0.0 0.00
2017-11-17 23:25 37.0 36.2 12.7 24.2 31.5 24.711 0.0 0.00
2017-11-17 23:20 36.9 35.9 12.3 23.9 41.3 24.707 0.0 0.00
2017-11-17 23:15 36.6 37.5 13.0 18.4 27.0 24.705 0.0 0.00
2017-11-17 23:10 36.5 40.6 14.8 22.0 31.9 24.695 0.0 0.00
2017-11-17 23:05 36.6 41.1 15.2 25.0 36.8 24.686 0.0 0.00
2017-11-17 23:00 36.6 40.4 14.7 18.8 32.0 24.682 0.0 0.00
2017-11-17 22:55 37.1 41.9 16.1 14.8 24.0 24.685 0.0 0.00
2017-11-17 22:50 36.9 42.0 16.0 12.7 24.7 24.686 0.0 0.00
2017-11-17 22:45 37.3 41.2 15.8 12.8 19.1 24.680 0.0 0.00
2017-11-17 22:40 37.6 40.5 15.7 15.6 24.9 24.679 0.0 0.00
2017-11-17 22:35 38.3 39.6 15.8 29.7 41.8 24.673 0.0 0.00
2017-11-17 22:30 38.2 38.8 15.3 32.2 45.3 24.654 0.0 0.00